createdAt,value
2023-04-16T00:00:37.550Z,7.89
2023-04-16T00:03:04.201Z,7.98
2023-04-16T00:05:31.060Z,7.92
2023-04-16T00:07:57.514Z,7.95
2023-04-16T00:10:24.025Z,7.93
2023-04-16T00:12:50.510Z,7.92
2023-04-16T00:15:16.999Z,7.94
2023-04-16T00:17:43.510Z,7.97
2023-04-16T00:20:10.408Z,7.93
2023-04-16T00:22:37.132Z,7.89
2023-04-16T00:25:03.871Z,7.96
2023-04-16T00:27:30.376Z,7.92
2023-04-16T00:29:56.891Z,7.92
2023-04-16T00:32:23.424Z,7.93
2023-04-16T00:34:49.853Z,7.89
2023-04-16T00:37:16.484Z,7.89
2023-04-16T00:39:42.968Z,7.86
2023-04-16T00:42:09.777Z,7.88
2023-04-16T00:44:36.210Z,7.91
2023-04-16T00:47:03.357Z,7.92
2023-04-16T00:49:30.817Z,7.88
2023-04-16T00:51:57.612Z,7.85
2023-04-16T00:54:25.643Z,7.88
2023-04-16T00:56:52.221Z,7.85
2023-04-16T00:59:18.772Z,7.90
2023-04-16T01:01:45.236Z,7.89
2023-04-16T01:04:12.000Z,7.89
2023-04-16T01:06:38.559Z,7.90
2023-04-16T01:09:05.728Z,7.90
2023-04-16T01:11:32.665Z,7.90
2023-04-16T01:13:59.162Z,7.86
2023-04-16T01:16:26.959Z,7.91
2023-04-16T01:18:53.602Z,7.87
2023-04-16T01:21:20.050Z,7.90
2023-04-16T01:23:46.506Z,7.89
2023-04-16T01:26:12.968Z,7.85
2023-04-16T01:28:39.739Z,7.86
2023-04-16T01:31:06.237Z,7.88
2023-04-16T01:33:32.737Z,7.90
2023-04-16T01:35:59.228Z,7.87
2023-04-16T01:38:25.683Z,7.88
2023-04-16T01:40:57.331Z,7.94
2023-04-16T01:43:23.800Z,7.95
2023-04-16T01:45:50.331Z,7.94
2023-04-16T01:48:16.940Z,7.93
2023-04-16T01:50:43.518Z,7.95
2023-04-16T01:53:10.068Z,7.93
2023-04-16T01:55:36.544Z,7.93
2023-04-16T01:58:03.204Z,7.99
2023-04-16T02:00:29.778Z,7.97
2023-04-16T02:02:56.582Z,7.98
2023-04-16T02:05:23.205Z,7.97
2023-04-16T02:07:49.755Z,8.04
2023-04-16T02:10:16.509Z,8.02
2023-04-16T02:12:43.237Z,8.07
2023-04-16T02:15:10.161Z,8.08
2023-04-16T02:17:36.834Z,8.07
2023-04-16T02:20:05.660Z,8.11
2023-04-16T02:22:32.165Z,8.11
2023-04-16T02:24:58.600Z,8.09
2023-04-16T02:27:25.105Z,8.15
2023-04-16T02:29:51.541Z,8.15
2023-04-16T02:32:18.440Z,8.11
2023-04-16T02:34:44.901Z,8.16
2023-04-16T02:37:11.558Z,8.17
2023-04-16T02:39:38.121Z,8.19
2023-04-16T02:42:04.703Z,8.18
2023-04-16T02:44:31.172Z,8.14
2023-04-16T02:46:57.792Z,8.19
2023-04-16T02:49:24.242Z,8.19
2023-04-16T02:51:50.708Z,8.20
2023-04-16T02:54:17.159Z,8.22
2023-04-16T02:56:43.640Z,8.21
2023-04-16T02:59:10.448Z,8.20
2023-04-16T03:01:37.169Z,8.18
2023-04-16T03:04:03.872Z,8.23
2023-04-16T03:06:31.443Z,8.17
2023-04-16T03:08:58.001Z,8.21
2023-04-16T03:11:24.485Z,8.23
2023-04-16T03:13:51.261Z,8.22
2023-04-16T03:16:17.723Z,8.22
2023-04-16T03:18:44.221Z,8.15
2023-04-16T03:21:10.734Z,8.21
2023-04-16T03:23:37.237Z,8.17
2023-04-16T03:26:03.841Z,8.24
2023-04-16T03:28:30.391Z,8.19
2023-04-16T03:30:56.934Z,8.22
2023-04-16T03:33:23.508Z,8.25
2023-04-16T03:35:57.267Z,8.22
2023-04-16T03:38:25.749Z,8.24
2023-04-16T03:40:52.215Z,8.19
2023-04-16T03:43:18.800Z,8.20
2023-04-16T03:45:46.306Z,8.25
2023-04-16T03:48:13.622Z,8.25
2023-04-16T03:50:40.167Z,8.23
2023-04-16T03:53:06.692Z,8.22
2023-04-16T03:55:33.141Z,8.20
2023-04-16T03:58:03.032Z,8.21
2023-04-16T04:00:30.487Z,8.21
2023-04-16T04:02:57.261Z,8.23
2023-04-16T04:05:24.096Z,8.26
2023-04-16T04:07:50.654Z,8.23
2023-04-16T04:10:17.276Z,8.24
2023-04-16T04:12:44.176Z,8.26
2023-04-16T04:15:11.619Z,8.26
2023-04-16T04:17:38.195Z,8.24
2023-04-16T04:20:05.370Z,8.22
2023-04-16T04:22:31.908Z,8.21
2023-04-16T04:24:58.554Z,8.18
2023-04-16T04:27:25.096Z,8.20
2023-04-16T04:29:51.620Z,8.22
2023-04-16T04:32:18.220Z,8.22
2023-04-16T04:34:44.782Z,8.19
2023-04-16T04:37:11.411Z,8.14
2023-04-16T04:39:37.994Z,8.14
2023-04-16T04:42:04.527Z,8.16
2023-04-16T04:44:31.257Z,8.16
2023-04-16T04:46:57.713Z,8.15
2023-04-16T04:49:24.205Z,8.16
2023-04-16T04:51:50.935Z,8.12
2023-04-16T04:54:17.412Z,8.10
2023-04-16T04:56:45.881Z,8.15
2023-04-16T04:59:12.743Z,8.14
2023-04-16T05:01:39.377Z,8.13
2023-04-16T05:04:06.422Z,8.14
2023-04-16T05:06:32.977Z,8.10
2023-04-16T05:08:59.462Z,8.12
2023-04-16T05:11:26.123Z,8.09
2023-04-16T05:13:52.577Z,8.16
2023-04-16T05:16:19.177Z,8.13
2023-04-16T05:18:45.626Z,8.16
2023-04-16T05:21:12.085Z,8.17
2023-04-16T05:23:38.653Z,8.16
2023-04-16T05:26:05.285Z,8.17
2023-04-16T05:28:32.055Z,8.15
2023-04-16T05:30:58.567Z,8.18
2023-04-16T05:33:25.227Z,8.18
2023-04-16T05:35:52.019Z,8.14
2023-04-16T05:38:18.480Z,8.17
2023-04-16T05:40:44.959Z,8.21
2023-04-16T05:43:11.466Z,8.18
2023-04-16T05:45:41.187Z,8.23
2023-04-16T05:48:11.295Z,8.20
2023-04-16T05:50:38.035Z,8.24
2023-04-16T05:53:06.650Z,8.20
2023-04-16T05:55:33.561Z,8.22
2023-04-16T05:58:00.143Z,8.25
2023-04-16T06:00:27.199Z,8.22
2023-04-16T06:02:53.824Z,8.27
2023-04-16T06:05:20.754Z,8.23
2023-04-16T06:07:47.349Z,8.27
2023-04-16T06:10:13.923Z,8.29
2023-04-16T06:12:40.489Z,8.28
2023-04-16T06:15:07.668Z,8.30
2023-04-16T06:17:34.182Z,8.34
2023-04-16T06:20:00.921Z,8.29
2023-04-16T06:22:27.518Z,8.36
2023-04-16T06:24:54.083Z,8.37
2023-04-16T06:27:20.796Z,8.37
2023-04-16T06:29:47.372Z,8.40
2023-04-16T06:32:13.956Z,8.39
2023-04-16T06:34:40.657Z,8.40
2023-04-16T06:37:09.843Z,8.35
2023-04-16T06:39:37.287Z,8.42
2023-04-16T06:42:04.401Z,8.42
2023-04-16T06:44:30.894Z,8.42
2023-04-16T06:46:57.426Z,8.45
2023-04-16T06:49:23.939Z,8.42
2023-04-16T06:51:50.521Z,8.48
2023-04-16T06:54:17.126Z,8.47
2023-04-16T06:56:43.668Z,8.51
2023-04-16T06:59:11.217Z,8.46
2023-04-16T07:01:37.884Z,8.48
2023-04-16T07:04:04.630Z,8.51
2023-04-16T07:06:32.210Z,8.55
2023-04-16T07:08:58.724Z,8.46
2023-04-16T07:11:26.471Z,8.53
2023-04-16T07:13:53.919Z,8.54
2023-04-16T07:16:20.954Z,8.53
2023-04-16T07:18:47.582Z,8.62
2023-04-16T07:21:14.034Z,8.60
2023-04-16T07:23:40.567Z,8.60
2023-04-16T07:26:06.993Z,8.58
2023-04-16T07:28:33.465Z,8.58
2023-04-16T07:31:00.301Z,8.56
2023-04-16T07:33:27.321Z,8.56
2023-04-16T07:35:53.864Z,8.59
2023-04-16T07:38:20.636Z,8.59
2023-04-16T07:40:48.610Z,8.60
2023-04-16T07:43:16.566Z,8.61
2023-04-16T07:45:43.051Z,8.70
2023-04-16T07:48:09.528Z,8.66
2023-04-16T07:50:36.430Z,8.71
2023-04-16T07:53:03.773Z,8.67
2023-04-16T07:55:30.450Z,8.75
2023-04-16T07:57:57.055Z,8.72
2023-04-16T08:00:23.550Z,8.75
2023-04-16T08:02:50.543Z,8.75
2023-04-16T08:05:17.195Z,8.76
2023-04-16T08:07:43.673Z,8.78
2023-04-16T08:10:10.338Z,8.84
2023-04-16T08:12:36.924Z,8.89
2023-04-16T08:15:03.669Z,8.88
2023-04-16T08:17:30.306Z,8.86
2023-04-16T08:19:56.889Z,8.88
2023-04-16T08:22:23.428Z,8.91
2023-04-16T08:24:49.955Z,8.90
2023-04-16T08:27:19.641Z,8.92
2023-04-16T08:29:47.595Z,8.93
2023-04-16T08:32:14.206Z,8.94
2023-04-16T08:34:41.947Z,9.03
2023-04-16T08:37:08.573Z,9.01
2023-04-16T08:39:35.465Z,9.02
2023-04-16T08:42:05.561Z,9.01
2023-04-16T08:44:35.301Z,9.08
2023-04-16T08:47:02.425Z,9.07
2023-04-16T08:49:29.898Z,9.08
2023-04-16T08:51:57.240Z,9.10
2023-04-16T08:54:57.253Z,9.09
2023-04-16T08:57:26.945Z,9.11
2023-04-16T08:59:55.962Z,9.11
2023-04-16T09:02:23.070Z,9.14
2023-04-16T09:04:50.725Z,9.15
2023-04-16T09:07:19.556Z,9.10
2023-04-16T09:09:48.534Z,9.19
2023-04-16T09:12:15.487Z,9.22
2023-04-16T09:14:43.123Z,9.27
2023-04-16T09:17:10.589Z,9.23
2023-04-16T09:19:37.099Z,9.26
2023-04-16T09:22:03.650Z,9.31
2023-04-16T09:24:30.508Z,9.34
2023-04-16T09:26:57.567Z,9.34
2023-04-16T09:29:40.868Z,9.34
2023-04-16T09:32:09.226Z,9.36
2023-04-16T09:34:54.318Z,9.41
2023-04-16T09:37:21.053Z,9.40
2023-04-16T09:40:04.358Z,9.41
2023-04-16T09:42:37.286Z,9.46
2023-04-16T09:45:06.062Z,9.47
2023-04-16T09:47:41.543Z,9.50
2023-04-16T09:50:11.310Z,9.45
2023-04-16T09:52:39.105Z,9.47
2023-04-16T09:55:06.238Z,9.50
2023-04-16T09:57:32.722Z,9.49
2023-04-16T10:00:07.819Z,9.48
2023-04-16T10:02:35.023Z,9.49
2023-04-16T10:05:03.149Z,9.52
2023-04-16T10:07:33.440Z,9.56
2023-04-16T10:10:00.599Z,9.55
2023-04-16T10:12:28.791Z,9.55
2023-04-16T10:14:55.323Z,9.54
2023-04-16T10:17:22.208Z,9.58
2023-04-16T10:19:49.116Z,9.62
2023-04-16T10:22:15.581Z,9.55
2023-04-16T10:24:42.815Z,9.55
2023-04-16T10:27:09.465Z,9.65
2023-04-16T10:29:36.998Z,9.70
2023-04-16T10:32:04.263Z,9.69
2023-04-16T10:34:31.464Z,9.69
2023-04-16T10:36:58.053Z,9.67
2023-04-16T10:39:27.806Z,9.69
2023-04-16T10:42:11.973Z,9.77
2023-04-16T10:44:41.898Z,9.77
2023-04-16T10:47:12.666Z,9.75
2023-04-16T10:49:39.459Z,9.76
2023-04-16T10:52:13.485Z,9.77
2023-04-16T10:54:41.000Z,9.78
2023-04-16T10:57:10.461Z,9.71
2023-04-16T10:59:39.549Z,9.74
2023-04-16T11:02:13.677Z,9.79
2023-04-16T11:04:43.229Z,9.82
2023-04-16T11:07:16.554Z,9.98
2023-04-16T11:10:05.793Z,10.06
2023-04-16T11:12:42.650Z,10.08
2023-04-16T11:15:14.374Z,10.01
2023-04-16T11:17:51.754Z,10.07
2023-04-16T11:20:25.210Z,10.04
2023-04-16T11:22:56.660Z,10.02
2023-04-16T11:25:34.176Z,10.04
2023-04-16T11:28:02.524Z,10.13
2023-04-16T11:30:31.018Z,10.10
2023-04-16T11:32:57.695Z,10.08
2023-04-16T11:35:24.300Z,10.00
2023-04-16T11:37:56.280Z,9.96
2023-04-16T11:40:23.423Z,9.96
2023-04-16T11:42:49.922Z,10.00
2023-04-16T11:45:18.208Z,10.06
2023-04-16T11:47:52.695Z,9.98
2023-04-16T11:50:21.967Z,9.94
2023-04-16T11:52:49.521Z,10.05
2023-04-16T11:55:16.080Z,10.03
2023-04-16T11:57:42.758Z,10.04
2023-04-16T12:00:13.996Z,10.07
2023-04-16T12:02:43.422Z,10.08
2023-04-16T12:05:34.975Z,10.13
2023-04-16T12:08:03.971Z,10.13
2023-04-16T12:10:34.910Z,10.15
2023-04-16T12:13:15.153Z,10.20
2023-04-16T12:15:45.928Z,10.21
2023-04-16T12:18:12.623Z,10.21
2023-04-16T12:20:41.884Z,10.31
2023-04-16T12:23:08.938Z,10.33
2023-04-16T12:25:35.535Z,10.38
2023-04-16T12:28:02.244Z,10.34
2023-04-16T12:30:29.644Z,10.30
2023-04-16T12:33:16.565Z,10.37
2023-04-16T12:35:45.838Z,10.31
2023-04-16T12:38:15.036Z,10.37
2023-04-16T12:40:41.841Z,10.37
2023-04-16T12:43:09.817Z,10.37
2023-04-16T12:45:37.173Z,10.41
2023-04-16T12:48:03.894Z,10.34
2023-04-16T12:50:30.564Z,10.38
2023-04-16T12:52:57.924Z,10.38
2023-04-16T12:55:24.952Z,10.36
2023-04-16T12:57:53.079Z,10.33
2023-04-16T13:00:20.528Z,10.38
2023-04-16T13:02:47.258Z,10.41
2023-04-16T13:05:16.555Z,10.41
2023-04-16T13:07:43.214Z,10.42
2023-04-16T13:10:10.221Z,10.41
2023-04-16T13:12:36.753Z,10.52
2023-04-16T13:15:03.411Z,10.47
2023-04-16T13:17:29.935Z,10.57
2023-04-16T13:19:56.456Z,10.67
2023-04-16T13:22:23.006Z,10.73
2023-04-16T13:24:49.951Z,10.70
2023-04-16T13:27:16.862Z,10.66
2023-04-16T13:29:43.376Z,10.68
2023-04-16T13:32:09.987Z,10.68
2023-04-16T13:34:36.647Z,10.73
2023-04-16T13:37:03.174Z,10.68
2023-04-16T13:39:29.712Z,10.63
2023-04-16T13:41:56.250Z,10.68
2023-04-16T13:44:22.753Z,10.62
2023-04-16T13:46:49.741Z,10.66
2023-04-16T13:49:16.630Z,10.62
2023-04-16T13:51:44.620Z,10.60
2023-04-16T13:54:12.477Z,10.55
2023-04-16T13:56:39.788Z,10.55
2023-04-16T13:59:06.413Z,10.55
2023-04-16T14:01:33.086Z,10.59
2023-04-16T14:04:06.082Z,10.65
2023-04-16T14:06:33.981Z,10.67
2023-04-16T14:09:01.214Z,10.59
2023-04-16T14:11:27.869Z,10.65
2023-04-16T14:13:54.663Z,10.60
2023-04-16T14:16:21.214Z,10.64
2023-04-16T14:18:47.747Z,10.72
2023-04-16T14:21:14.248Z,10.86
2023-04-16T14:23:41.177Z,10.95
2023-04-16T14:26:08.128Z,10.95
2023-04-16T14:28:35.936Z,10.99
2023-04-16T14:31:02.396Z,11.03
2023-04-16T14:33:29.018Z,11.03
2023-04-16T14:35:55.595Z,11.06
2023-04-16T14:38:22.101Z,11.03
2023-04-16T14:40:48.863Z,11.04
2023-04-16T14:43:15.504Z,11.14
2023-04-16T14:45:42.168Z,11.11
2023-04-16T14:48:08.821Z,11.02
2023-04-16T14:50:38.994Z,10.99
2023-04-16T14:53:05.782Z,11.00
2023-04-16T14:55:32.727Z,11.00
2023-04-16T14:57:59.870Z,11.07
2023-04-16T15:00:27.401Z,11.14
2023-04-16T15:02:54.991Z,11.16
2023-04-16T15:05:22.136Z,11.17
2023-04-16T15:07:48.756Z,11.13
2023-04-16T15:10:15.563Z,11.12
2023-04-16T15:12:42.150Z,11.20
2023-04-16T15:15:09.681Z,11.25
2023-04-16T15:17:36.240Z,11.30
2023-04-16T15:20:06.508Z,11.37
2023-04-16T15:22:33.011Z,11.36
2023-04-16T15:24:59.715Z,11.31
2023-04-16T15:27:26.562Z,11.25
2023-04-16T15:29:53.968Z,11.19
2023-04-16T15:32:20.917Z,11.16
2023-04-16T15:34:47.577Z,11.11
2023-04-16T15:37:14.543Z,11.07
2023-04-16T15:39:41.293Z,11.11
2023-04-16T15:42:08.257Z,11.02
2023-04-16T15:44:34.784Z,10.97
2023-04-16T15:47:01.367Z,10.99
2023-04-16T15:49:27.963Z,10.98
2023-04-16T15:51:55.593Z,10.98
2023-04-16T15:54:22.304Z,10.97
2023-04-16T15:56:48.897Z,10.86
2023-04-16T15:59:15.547Z,10.89
2023-04-16T16:01:42.101Z,10.92
2023-04-16T16:04:08.931Z,11.02
2023-04-16T16:06:37.988Z,11.04
2023-04-16T16:09:04.992Z,11.01
2023-04-16T16:11:32.587Z,10.95
2023-04-16T16:14:01.488Z,10.82
2023-04-16T16:16:28.652Z,10.81
2023-04-16T16:18:55.419Z,10.80
2023-04-16T16:21:22.117Z,10.72
2023-04-16T16:23:48.705Z,10.70
2023-04-16T16:26:15.237Z,10.71
2023-04-16T16:28:43.848Z,10.62
2023-04-16T16:31:12.243Z,10.65
2023-04-16T16:33:40.456Z,10.61
2023-04-16T16:36:10.756Z,10.60
2023-04-16T16:38:37.996Z,10.57
2023-04-16T16:41:04.765Z,10.52
2023-04-16T16:43:31.436Z,10.58
2023-04-16T16:45:57.973Z,10.55
2023-04-16T16:48:24.485Z,10.54
2023-04-16T16:50:51.115Z,10.57
2023-04-16T16:53:17.773Z,10.60
2023-04-16T16:55:44.260Z,10.50
2023-04-16T16:58:11.176Z,10.38
2023-04-16T17:00:37.972Z,10.36
2023-04-16T17:03:04.677Z,10.32
2023-04-16T17:05:31.342Z,10.33
2023-04-16T17:07:57.838Z,10.28
2023-04-16T17:10:25.216Z,10.27
2023-04-16T17:12:51.975Z,10.10
2023-04-16T17:15:21.481Z,10.07
2023-04-16T17:17:48.722Z,10.00
2023-04-16T17:20:15.718Z,9.99
2023-04-16T17:22:42.484Z,9.88
2023-04-16T17:25:09.539Z,9.83
2023-04-16T17:27:36.280Z,9.79
2023-04-16T17:30:05.407Z,9.77
2023-04-16T17:32:33.032Z,9.66
2023-04-16T17:35:01.468Z,9.75
2023-04-16T17:37:28.520Z,9.74
2023-04-16T17:39:55.037Z,9.77
2023-04-16T17:42:21.723Z,9.76
2023-04-16T17:44:48.227Z,9.76
2023-04-16T17:47:14.783Z,9.77
2023-04-16T17:49:41.293Z,9.77
2023-04-16T17:52:07.896Z,9.77
2023-04-16T17:54:34.386Z,9.78
2023-04-16T17:57:02.106Z,9.79
2023-04-16T17:59:28.897Z,9.76
2023-04-16T18:01:56.597Z,9.76
2023-04-16T18:04:23.601Z,9.64
2023-04-16T18:06:50.504Z,9.55
2023-04-16T18:09:17.163Z,9.48
2023-04-16T18:11:43.717Z,9.36
2023-04-16T18:14:11.686Z,9.38
2023-04-16T18:16:38.808Z,9.38
2023-04-16T18:19:05.544Z,9.34
2023-04-16T18:21:32.167Z,9.31
2023-04-16T18:24:00.959Z,9.25
2023-04-16T18:26:29.654Z,9.18
2023-04-16T18:28:56.783Z,9.14
2023-04-16T18:31:23.274Z,9.15
2023-04-16T18:33:57.549Z,9.12
2023-04-16T18:36:26.579Z,9.15
2023-04-16T18:39:15.642Z,9.05
2023-04-16T18:41:41.672Z,9.01
2023-04-16T18:44:10.678Z,9.04
2023-04-16T18:46:37.195Z,9.04
2023-04-16T18:49:03.772Z,9.01
2023-04-16T18:51:30.311Z,8.99
2023-04-16T18:53:57.059Z,8.99
2023-04-16T18:56:23.602Z,8.99
2023-04-16T18:58:50.135Z,8.94
2023-04-16T19:01:17.975Z,8.87
2023-04-16T19:03:45.539Z,8.90
2023-04-16T19:06:12.215Z,8.86
2023-04-16T19:08:38.730Z,8.77
2023-04-16T19:11:05.207Z,8.82
2023-04-16T19:13:32.317Z,8.80
2023-04-16T19:16:00.465Z,8.80
2023-04-16T19:18:27.266Z,8.80
2023-04-16T19:21:00.806Z,8.80
2023-04-16T19:23:27.895Z,8.79
2023-04-16T19:25:56.285Z,8.76
2023-04-16T19:28:23.709Z,8.77
2023-04-16T19:30:54.336Z,8.81
2023-04-16T19:33:20.905Z,8.79
2023-04-16T19:35:47.559Z,8.78
2023-04-16T19:38:14.153Z,8.80
2023-04-16T19:40:43.254Z,8.77
2023-04-16T19:43:09.784Z,8.78
2023-04-16T19:45:36.448Z,8.78
2023-04-16T19:48:03.289Z,8.77
2023-04-16T19:50:30.040Z,8.76
2023-04-16T19:52:56.753Z,8.72
2023-04-16T19:55:23.255Z,8.76
2023-04-16T19:57:50.045Z,8.77
2023-04-16T20:00:17.073Z,8.73
2023-04-16T20:02:43.834Z,8.76
2023-04-16T20:05:10.520Z,8.74
2023-04-16T20:07:37.042Z,8.69
2023-04-16T20:10:03.737Z,8.77
2023-04-16T20:12:30.253Z,8.74
2023-04-16T20:14:56.728Z,8.75
2023-04-16T20:17:23.279Z,8.77
2023-04-16T20:19:51.182Z,8.78
2023-04-16T20:22:18.779Z,8.78
2023-04-16T20:24:47.755Z,8.76
2023-04-16T20:27:15.406Z,8.81
2023-04-16T20:29:42.192Z,8.76
2023-04-16T20:32:08.745Z,8.78
2023-04-16T20:34:36.507Z,8.72
2023-04-16T20:37:02.981Z,8.74
2023-04-16T20:39:31.462Z,8.74
2023-04-16T20:41:57.933Z,8.69
2023-04-16T20:44:33.276Z,8.71
2023-04-16T20:47:00.081Z,8.68
2023-04-16T20:49:26.738Z,8.71
2023-04-16T20:51:53.434Z,8.68
2023-04-16T20:54:20.015Z,8.71
2023-04-16T20:56:46.785Z,8.68
2023-04-16T20:59:13.569Z,8.59
2023-04-16T21:01:40.216Z,8.54
2023-04-16T21:04:07.200Z,8.48
2023-04-16T21:06:38.347Z,8.38
2023-04-16T21:09:06.050Z,8.41
2023-04-16T21:11:34.746Z,8.46
2023-04-16T21:14:02.372Z,8.42
2023-04-16T21:16:29.206Z,8.47
2023-04-16T21:18:56.406Z,8.47
2023-04-16T21:21:23.585Z,8.50
2023-04-16T21:23:50.746Z,8.51
2023-04-16T21:26:17.351Z,8.53
2023-04-16T21:28:43.897Z,8.52
2023-04-16T21:31:10.410Z,8.51
2023-04-16T21:33:36.884Z,8.47
2023-04-16T21:36:03.584Z,8.43
2023-04-16T21:38:30.046Z,8.44
2023-04-16T21:40:56.903Z,8.45
2023-04-16T21:43:23.874Z,8.44
2023-04-16T21:45:53.807Z,8.39
2023-04-16T21:48:21.216Z,8.40
2023-04-16T21:50:47.844Z,8.38
2023-04-16T21:53:14.336Z,8.31
2023-04-16T21:55:42.174Z,8.33
2023-04-16T21:58:08.621Z,8.34
2023-04-16T22:00:35.165Z,8.26
2023-04-16T22:03:01.848Z,8.24
2023-04-16T22:05:28.955Z,8.30
2023-04-16T22:07:55.756Z,8.30
2023-04-16T22:10:22.638Z,8.32
2023-04-16T22:12:49.372Z,8.32
2023-04-16T22:15:15.922Z,8.31
2023-04-16T22:17:42.531Z,8.30
2023-04-16T22:20:12.297Z,8.23
2023-04-16T22:22:42.773Z,8.29
2023-04-16T22:25:10.010Z,8.24
2023-04-16T22:27:37.384Z,8.21
2023-04-16T22:30:05.178Z,8.24
2023-04-16T22:32:33.087Z,8.21
2023-04-16T22:34:59.559Z,8.22
2023-04-16T22:37:26.089Z,8.21
2023-04-16T22:39:52.622Z,8.19
2023-04-16T22:42:19.115Z,8.18
2023-04-16T22:44:45.638Z,8.18
2023-04-16T22:47:12.186Z,8.11
2023-04-16T22:49:38.749Z,8.17
2023-04-16T22:52:05.540Z,8.13
2023-04-16T22:54:32.700Z,8.15
2023-04-16T22:56:59.201Z,8.09
2023-04-16T22:59:25.872Z,8.00
2023-04-16T23:01:52.501Z,7.97
2023-04-16T23:04:19.281Z,8.01
2023-04-16T23:06:46.457Z,7.95
2023-04-16T23:09:13.238Z,8.00
2023-04-16T23:11:39.976Z,8.02
2023-04-16T23:14:06.531Z,7.98
2023-04-16T23:16:33.065Z,7.98
2023-04-16T23:18:59.648Z,7.97
2023-04-16T23:21:26.331Z,7.96
2023-04-16T23:23:52.852Z,7.97
2023-04-16T23:26:19.306Z,7.94
2023-04-16T23:28:45.791Z,7.93
2023-04-16T23:31:12.282Z,7.90
2023-04-16T23:33:38.889Z,7.94
2023-04-16T23:36:05.609Z,7.97
2023-04-16T23:38:32.162Z,7.98
2023-04-16T23:40:58.641Z,8.02
2023-04-16T23:43:25.204Z,7.96
2023-04-16T23:45:51.719Z,8.01
2023-04-16T23:48:18.226Z,8.03
2023-04-16T23:50:44.739Z,7.96
2023-04-16T23:53:11.220Z,7.99
2023-04-16T23:55:37.810Z,7.93
2023-04-16T23:58:04.350Z,7.92
